Time;durP1;ratioP1;P1;durP2;ratioP2;P2;SDS_P1;SDS_P2;PMS_P1;PMS_P2;Temp;Humidity;BMP_temperature;BMP_pressure;BME280_temperature;BME280_humidity;BME280_pressure;Samples;Min_cycle;Max_cycle;Signal;HPM_P1;HPM_P2
2023/03/15 00:01:59;;;;;;;12.57;8.15;;;8.60;99.90;;;;;;4951523;28;20047;-87
2023/03/15 00:04:26;;;;;;;12.45;8.05;;;8.60;99.90;;;;;;4951395;28;20040;-88
2023/03/15 00:06:52;;;;;;;12.80;8.70;;;8.70;99.90;;;;;;4951012;28;20115;-88
2023/03/15 00:09:18;;;;;;;14.18;8.63;;;8.90;99.90;;;;;;4951278;28;20107;-88
2023/03/15 00:11:44;;;;;;;12.30;8.73;;;8.30;99.90;;;;;;4951103;28;20516;-88
2023/03/15 00:14:10;;;;;;;16.92;9.20;;;8.30;99.90;;;;;;4950783;28;20020;-87
2023/03/15 00:16:36;;;;;;;14.00;8.55;;;8.60;99.90;;;;;;4951487;28;20046;-87
2023/03/15 00:19:01;;;;;;;15.73;8.25;;;8.60;99.90;;;;;;4952313;28;20024;-87
2023/03/15 00:21:28;;;;;;;15.20;8.95;;;8.60;99.90;;;;;;4951263;28;20082;-87
2023/03/15 00:23:54;;;;;;;12.85;8.40;;;8.60;99.90;;;;;;4935395;29;20032;-87
2023/03/15 00:26:21;;;;;;;15.85;9.20;;;8.60;99.90;;;;;;4935364;29;20062;-87
2023/03/15 00:28:46;;;;;;;13.75;8.40;;;8.70;99.90;;;;;;4934971;29;20024;-87
2023/03/15 00:31:14;;;;;;;15.65;9.95;;;8.40;99.90;;;;;;4935182;29;20046;-87
2023/03/15 00:33:40;;;;;;;17.05;9.30;;;8.40;99.90;;;;;;4935171;29;20035;-88
2023/03/15 00:36:07;;;;;;;15.70;9.02;;;8.30;99.90;;;;;;4935161;29;20482;-87
2023/03/15 00:38:34;;;;;;;15.82;9.25;;;8.50;99.90;;;;;;4933950;29;20432;-87
2023/03/15 00:41:09;;;;;;;13.38;8.85;;;8.90;99.90;;;;;;4934764;29;20032;-88
2023/03/15 00:43:35;;;;;;;18.13;9.43;;;9.00;99.90;;;;;;4934886;29;20059;-88
2023/03/15 00:46:01;;;;;;;14.68;8.32;;;9.00;99.90;;;;;;4934973;29;20477;-88
2023/03/15 00:48:27;;;;;;;16.25;8.85;;;9.00;99.90;;;;;;4934112;29;20032;-87
2023/03/15 00:51:07;;;;;;;17.40;8.32;;;8.50;99.90;;;;;;4934932;29;20042;-88
2023/03/15 00:53:34;;;;;;;15.35;9.60;;;8.30;99.90;;;;;;4941391;29;20023;-87
2023/03/15 00:56:15;;;;;;;14.00;8.50;;;8.60;99.90;;;;;;4952462;29;20066;-87
2023/03/15 00:58:41;;;;;;;15.35;8.13;;;8.60;99.90;;;;;;4953870;28;20077;-87
2023/03/15 01:01:13;;;;;;;12.85;8.57;;;8.80;99.90;;;;;;4954265;28;20089;-87
2023/03/15 01:03:39;;;;;;;13.70;8.27;;;8.80;99.90;;;;;;4952762;29;20030;-87
2023/03/15 01:06:11;;;;;;;13.55;8.15;;;8.90;99.90;;;;;;4953963;28;20023;-87
2023/03/15 01:08:37;;;;;;;11.68;7.88;;;9.00;99.90;;;;;;4954260;28;20423;-87
2023/03/15 01:11:05;;;;;;;12.45;7.50;;;9.00;99.90;;;;;;4953504;28;20093;-87
2023/03/15 01:13:30;;;;;;;12.05;7.85;;;9.20;99.90;;;;;;4953561;28;20115;-88
2023/03/15 01:15:56;;;;;;;14.00;8.13;;;9.10;99.90;;;;;;4953872;28;20070;-87
2023/03/15 01:18:22;;;;;;;13.07;7.78;;;9.20;99.90;;;;;;4952938;29;20027;-87
2023/03/15 01:20:47;;;;;;;12.55;7.25;;;9.10;99.90;;;;;;4952320;28;20508;-87
2023/03/15 01:23:13;;;;;;;11.85;7.63;;;8.90;99.90;;;;;;4942642;28;20035;-87
2023/03/15 01:25:39;;;;;;;11.23;7.68;;;9.00;99.90;;;;;;4934111;29;20470;-87
2023/03/15 01:28:05;;;;;;;11.68;7.20;;;9.00;99.90;;;;;;4934313;29;20036;-88
2023/03/15 01:30:30;;;;;;;13.05;7.07;;;8.90;99.90;;;;;;4933887;29;20034;-88
2023/03/15 01:32:56;;;;;;;13.90;7.45;;;9.00;99.90;;;;;;4934670;29;20184;-88
2023/03/15 01:35:21;;;;;;;12.45;7.40;;;8.90;99.90;;;;;;4933052;29;20057;-87
2023/03/15 01:37:50;;;;;;;10.43;6.38;;;8.90;99.90;;;;;;4934361;29;20028;-88
2023/03/15 01:40:16;;;;;;;10.02;6.10;;;8.70;99.90;;;;;;4932783;29;20409;-87
2023/03/15 01:42:52;;;;;;;10.77;5.50;;;8.60;99.90;;;;;;4933963;29;20044;-87
2023/03/15 01:45:55;;;;;;;8.27;4.40;;;8.60;99.90;;;;;;4934190;29;20028;-87
2023/03/15 01:48:26;;;;;;;6.95;4.30;;;8.60;99.90;;;;;;4934178;29;20039;-87
2023/03/15 01:50:56;;;;;;;10.07;4.32;;;8.50;99.90;;;;;;4934251;29;20028;-88
2023/03/15 01:53:24;;;;;;;7.65;4.38;;;8.80;99.90;;;;;;4934175;29;20035;-87
2023/03/15 01:55:52;;;;;;;8.95;4.35;;;8.40;99.90;;;;;;4951888;29;20035;-87
2023/03/15 01:58:20;;;;;;;10.77;5.00;;;8.30;99.90;;;;;;4952979;28;20496;-87
2023/03/15 02:00:46;;;;;;;10.25;4.97;;;8.20;99.90;;;;;;4952892;28;20521;-87
2023/03/15 02:03:17;;;;;;;10.38;4.40;;;8.20;99.90;;;;;;4953077;28;20028;-87
2023/03/15 02:05:47;;;;;;;8.43;4.03;;;8.20;99.90;;;;;;4953558;28;20024;-87
2023/03/15 02:08:16;;;;;;;8.25;3.08;;;8.00;99.90;;;;;;4951401;29;20031;-87
2023/03/15 02:10:45;;;;;;;7.20;2.80;;;8.00;99.90;;;;;;4952578;28;20041;-87
2023/03/15 02:13:18;;;;;;;5.05;2.60;;;8.00;99.90;;;;;;4952568;28;20100;-88
2023/03/15 02:15:45;;;;;;;6.43;2.50;;;8.00;99.90;;;;;;4967127;28;20034;-88
2023/03/15 02:18:15;;;;;;;6.38;2.45;;;7.90;99.90;;;;;;4953095;28;20089;-88
2023/03/15 02:20:56;;;;;;;6.35;2.30;;;7.90;99.90;;;;;;4953099;28;20097;-87
2023/03/15 02:23:23;;;;;;;7.22;2.40;;;7.90;99.90;;;;;;4951549;28;20108;-87
2023/03/15 02:25:57;;;;;;;7.45;2.63;;;8.00;99.90;;;;;;4933497;29;20023;-87
2023/03/15 02:28:24;;;;;;;10.50;3.45;;;7.80;99.90;;;;;;4933561;29;20481;-87
2023/03/15 02:30:50;;;;;;;7.80;3.55;;;7.80;99.90;;;;;;4932252;29;20032;-87
2023/03/15 02:33:33;;;;;;;8.75;3.97;;;7.70;99.90;;;;;;4933287;29;20028;-87
2023/03/15 02:36:10;;;;;;;6.60;3.75;;;7.70;99.90;;;;;;4933372;29;20055;-87
2023/03/15 02:38:35;;;;;;;8.85;3.95;;;7.60;99.90;;;;;;4931960;29;20448;-87
2023/03/15 02:41:02;;;;;;;8.57;4.10;;;7.60;99.90;;;;;;4931513;29;20040;-87
2023/03/15 02:43:30;;;;;;;9.98;4.22;;;7.50;99.90;;;;;;4933068;29;20122;-88
2023/03/15 02:45:56;;;;;;;8.93;4.18;;;7.50;99.90;;;;;;4933307;29;20028;-87
2023/03/15 02:48:22;;;;;;;9.40;3.85;;;7.50;99.90;;;;;;4933503;29;20077;-87
2023/03/15 02:50:47;;;;;;;8.98;4.15;;;7.50;99.90;;;;;;4933162;29;20034;-87
2023/03/15 02:53:13;;;;;;;9.70;3.58;;;7.50;99.90;;;;;;4932866;29;20027;-87
2023/03/15 02:55:39;;;;;;;8.27;3.85;;;7.40;99.90;;;;;;4939521;29;20493;-87
2023/03/15 02:58:04;;;;;;;7.82;4.03;;;7.40;99.90;;;;;;4951272;29;20034;-87
2023/03/15 03:00:30;;;;;;;11.23;3.92;;;7.20;99.90;;;;;;4952152;28;20038;-87
2023/03/15 03:02:56;;;;;;;8.07;3.55;;;7.20;99.90;;;;;;4952017;28;20028;-87
2023/03/15 03:05:22;;;;;;;6.88;3.28;;;7.30;99.90;;;;;;4950755;29;20054;-87
2023/03/15 03:07:49;;;;;;;8.70;3.97;;;7.30;99.90;;;;;;4952135;28;20035;-87
2023/03/15 03:10:17;;;;;;;7.28;3.50;;;7.20;99.90;;;;;;4952009;28;20023;-87
2023/03/15 03:12:43;;;;;;;9.98;3.55;;;7.20;99.90;;;;;;4951886;28;20031;-87
2023/03/15 03:15:10;;;;;;;8.82;4.43;;;7.10;99.90;;;;;;4950718;28;20031;-87
2023/03/15 03:17:37;;;;;;;11.73;4.68;;;7.20;99.90;;;;;;4952306;28;20035;-87
2023/03/15 03:20:08;;;;;;;8.90;4.20;;;7.10;99.90;;;;;;4951946;28;20512;-87
2023/03/15 03:22:35;;;;;;;10.05;4.53;;;7.00;99.90;;;;;;4951352;28;20050;-87
2023/03/15 03:25:01;;;;;;;10.07;4.07;;;6.80;99.90;;;;;;4945825;28;20015;-87
2023/03/15 03:27:27;;;;;;;8.70;3.95;;;6.70;99.90;;;;;;4932645;29;20043;-87
2023/03/15 03:29:53;;;;;;;5.88;3.78;;;6.80;99.90;;;;;;4931422;29;20508;-87
2023/03/15 03:32:18;;;;;;;8.93;4.40;;;6.80;99.90;;;;;;4931388;29;20028;-87
2023/03/15 03:34:52;;;;;;;9.75;4.70;;;6.80;99.90;;;;;;4932559;29;20034;-87
2023/03/15 03:37:20;;;;;;;6.90;3.60;;;6.80;99.90;;;;;;4932650;29;20106;-87
2023/03/15 03:39:46;;;;;;;7.05;3.63;;;6.80;99.90;;;;;;4932864;29;20034;-87
2023/03/15 03:42:11;;;;;;;9.85;4.40;;;6.70;99.90;;;;;;4932334;29;20035;-87
2023/03/15 03:44:37;;;;;;;6.63;3.70;;;6.70;99.90;;;;;;4930992;29;20064;-87
2023/03/15 03:47:03;;;;;;;7.13;3.42;;;6.70;99.90;;;;;;4932425;29;20035;-87
2023/03/15 03:49:29;;;;;;;8.00;3.63;;;6.80;99.90;;;;;;4932248;29;20027;-87
2023/03/15 03:51:54;;;;;;;8.85;3.65;;;6.70;99.90;;;;;;4932566;29;20390;-87
2023/03/15 03:54:20;;;;;;;5.80;3.63;;;6.60;99.90;;;;;;4930583;29;20024;-87
2023/03/15 03:56:46;;;;;;;6.93;3.20;;;6.60;99.90;;;;;;4937338;29;20062;-87
2023/03/15 03:59:12;;;;;;;9.45;3.28;;;6.60;99.90;;;;;;4950217;29;20496;-87
2023/03/15 04:01:38;;;;;;;7.13;3.55;;;6.50;99.90;;;;;;4951494;28;20085;-87
2023/03/15 04:04:04;;;;;;;8.10;4.30;;;6.60;99.90;;;;;;4950972;28;20035;-87
2023/03/15 04:06:30;;;;;;;8.40;4.18;;;6.60;99.90;;;;;;4951448;28;20428;-88
2023/03/15 04:08:56;;;;;;;12.52;4.88;;;6.60;99.90;;;;;;4951343;28;20030;-87
2023/03/15 04:11:25;;;;;;;9.02;5.07;;;6.60;99.90;;;;;;4951147;28;20027;-87
2023/03/15 04:13:52;;;;;;;9.77;4.38;;;6.40;99.90;;;;;;4966056;28;20027;-87
2023/03/15 04:16:18;;;;;;;7.78;4.55;;;6.60;99.90;;;;;;4951041;28;20081;-88
2023/03/15 04:18:43;;;;;;;10.50;4.78;;;6.30;99.90;;;;;;4965978;28;20031;-87
2023/03/15 04:21:09;;;;;;;7.57;4.40;;;6.40;99.90;;;;;;4965887;28;20039;-87
2023/03/15 04:23:36;;;;;;;8.23;4.43;;;6.40;99.90;;;;;;4950968;28;20118;-88
2023/03/15 04:26:02;;;;;;;9.25;4.35;;;6.40;99.90;;;;;;4941228;29;20402;-87
2023/03/15 04:28:29;;;;;;;10.73;4.57;;;6.40;99.90;;;;;;4930705;29;20127;-87
2023/03/15 04:30:57;;;;;;;10.60;4.47;;;6.50;99.90;;;;;;4930991;29;20039;-88
2023/03/15 04:33:26;;;;;;;6.80;4.05;;;6.40;99.90;;;;;;4931411;29;20035;-87
2023/03/15 04:35:52;;;;;;;9.80;4.57;;;6.30;99.90;;;;;;4931718;29;20070;-88
2023/03/15 04:38:18;;;;;;;7.43;4.32;;;6.30;99.90;;;;;;4931599;29;20059;-87
2023/03/15 04:40:44;;;;;;;8.13;4.43;;;6.60;99.90;;;;;;4930701;29;20046;-87
2023/03/15 04:43:10;;;;;;;11.18;4.82;;;6.30;99.90;;;;;;4931781;29;20514;-87
2023/03/15 04:45:35;;;;;;;8.65;4.40;;;6.30;99.90;;;;;;4931616;29;20028;-87
2023/03/15 04:48:02;;;;;;;11.68;4.80;;;6.00;99.90;;;;;;4931260;29;20087;-87
2023/03/15 04:50:29;;;;;;;11.43;5.40;;;6.50;99.90;;;;;;4931813;29;20086;-87
2023/03/15 04:52:56;;;;;;;9.50;4.75;;;6.50;99.90;;;;;;4931430;29;20035;-87
2023/03/15 04:55:21;;;;;;;9.60;5.00;;;6.10;99.90;;;;;;4931720;29;20038;-87
2023/03/15 04:57:47;;;;;;;10.93;4.80;;;6.20;99.90;;;;;;4945839;29;20023;-87
2023/03/15 05:00:13;;;;;;;10.18;4.60;;;6.30;99.90;;;;;;4950176;28;20035;-86
2023/03/15 05:02:40;;;;;;;9.48;4.40;;;5.80;99.90;;;;;;4950251;28;20119;-87
2023/03/15 05:05:10;;;;;;;10.43;4.60;;;6.10;99.90;;;;;;4951638;28;20461;-87
2023/03/15 05:07:36;;;;;;;8.73;4.40;;;6.10;99.90;;;;;;4953837;28;20073;-87
2023/03/15 05:10:03;;;;;;;8.57;4.65;;;5.60;99.90;;;;;;4952798;28;20065;-87
2023/03/15 05:12:29;;;;;;;9.23;4.78;;;5.70;99.90;;;;;;4953748;28;20485;-87
2023/03/15 05:14:55;;;;;;;9.73;4.47;;;5.80;99.90;;;;;;4953560;28;20042;-87
2023/03/15 05:17:21;;;;;;;8.52;4.40;;;6.40;99.90;;;;;;4953141;28;20031;-87
2023/03/15 05:19:50;;;;;;;6.95;4.43;;;5.80;99.90;;;;;;4953322;28;20114;-88
2023/03/15 05:22:16;;;;;;;9.43;5.10;;;5.70;99.90;;;;;;4953865;28;20043;-87
2023/03/15 05:24:43;;;;;;;8.88;5.03;;;5.50;99.90;;;;;;4953374;28;20019;-87
2023/03/15 05:27:10;;;;;;;9.20;5.68;;;5.20;99.90;;;;;;4935233;28;20040;-87
2023/03/15 05:29:36;;;;;;;10.48;5.10;;;5.20;99.90;;;;;;4933177;29;20485;-87
2023/03/15 05:32:03;;;;;;;7.78;4.53;;;5.40;99.90;;;;;;4934086;29;20062;-87
2023/03/15 05:34:31;;;;;;;9.60;4.18;;;5.00;99.90;;;;;;4934498;29;20024;-87
2023/03/15 05:36:59;;;;;;;10.98;4.85;;;5.10;99.90;;;;;;4934120;29;20035;-87
2023/03/15 05:39:25;;;;;;;8.05;4.28;;;5.30;1.00;;;;;;4934132;29;20035;-87
2023/03/15 05:41:51;;;;;;;12.43;4.57;;;5.10;99.90;;;;;;4934541;29;20043;-87
2023/03/15 05:44:16;;;;;;;8.55;4.88;;;5.30;99.90;;;;;;4932640;29;20044;-87
2023/03/15 05:46:42;;;;;;;10.65;4.43;;;5.40;99.90;;;;;;4933223;29;20105;-87
2023/03/15 05:49:08;;;;;;;11.07;5.43;;;5.50;99.90;;;;;;4934314;29;20035;-87
2023/03/15 05:51:34;;;;;;;9.30;4.80;;;5.50;99.90;;;;;;4933878;29;20545;-87
2023/03/15 05:54:00;;;;;;;7.28;4.55;;;5.60;99.90;;;;;;4933147;29;20123;-87
2023/03/15 05:56:26;;;;;;;11.73;5.05;;;6.10;99.90;;;;;;4934259;29;20048;-87
2023/03/15 05:58:51;;;;;;;11.27;4.90;;;5.70;99.90;;;;;;4945820;29;20114;-87
2023/03/15 06:01:17;;;;;;;10.40;6.00;;;5.70;99.90;;;;;;4952592;28;20505;-87
2023/03/15 06:03:43;;;;;;;10.45;5.20;;;5.70;99.90;;;;;;4951627;29;20042;-87
2023/03/15 06:06:08;;;;;;;10.00;5.72;;;5.60;99.90;;;;;;4952749;28;20066;-87
2023/03/15 06:08:34;;;;;;;11.63;7.38;;;5.70;99.90;;;;;;4953140;28;20035;-87
2023/03/15 06:11:00;;;;;;;10.65;6.65;;;5.70;99.90;;;;;;4952773;28;20036;-87
2023/03/15 06:13:25;;;;;;;14.90;6.80;;;5.70;99.90;;;;;;4952510;28;20034;-87
2023/03/15 06:15:51;;;;;;;16.02;7.63;;;5.90;99.90;;;;;;4952297;28;20481;-87
2023/03/15 06:18:17;;;;;;;12.55;6.82;;;6.20;99.90;;;;;;4952934;28;20071;-87
2023/03/15 06:20:43;;;;;;;11.50;5.80;;;6.20;99.90;;;;;;4952640;28;20485;-87
2023/03/15 06:23:09;;;;;;;11.00;6.13;;;6.20;99.90;;;;;;4952517;28;20451;-87
2023/03/15 06:25:35;;;;;;;14.38;7.50;;;5.80;99.90;;;;;;4950986;29;20147;-88
2023/03/15 06:28:00;;;;;;;16.80;7.70;;;6.30;99.90;;;;;;4934338;28;20027;-87
2023/03/15 06:30:27;;;;;;;13.35;6.38;;;5.80;99.90;;;;;;4931822;29;20481;-87
2023/03/15 06:32:53;;;;;;;16.13;9.18;;;5.50;99.90;;;;;;4933122;29;20066;-87
2023/03/15 06:35:19;;;;;;;23.88;12.50;;;6.00;99.90;;;;;;4933464;29;20093;-87
2023/03/15 06:37:44;;;;;;;11.30;6.18;;;5.80;99.90;;;;;;4931848;29;20024;-87
2023/03/15 06:40:11;;;;;;;28.05;14.18;;;5.70;99.90;;;;;;4931888;29;20508;-87
2023/03/15 06:42:38;;;;;;;23.60;11.57;;;5.90;99.90;;;;;;4932790;29;20031;-87
2023/03/15 06:45:05;;;;;;;15.57;6.97;;;5.80;99.90;;;;;;4933128;29;20040;-87
2023/03/15 06:47:31;;;;;;;10.38;6.13;;;5.70;99.90;;;;;;4932887;29;20035;-87
2023/03/15 06:49:56;;;;;;;13.23;6.30;;;5.60;99.90;;;;;;4931636;29;20089;-87
2023/03/15 06:52:22;;;;;;;10.80;6.18;;;5.70;99.90;;;;;;4933124;29;20027;-87
2023/03/15 06:54:48;;;;;;;12.55;6.03;;;5.90;99.90;;;;;;4931555;29;20024;-87
2023/03/15 06:57:14;;;;;;;10.25;6.22;;;6.50;99.90;;;;;;4932898;29;20031;-87
2023/03/15 06:59:39;;;;;;;14.13;7.10;;;6.50;99.90;;;;;;4943972;29;20035;-88
2023/03/15 07:02:06;;;;;;;13.63;5.47;;;6.10;99.90;;;;;;4952065;28;20036;-87
2023/03/15 07:04:31;;;;;;;8.18;5.15;;;5.70;99.90;;;;;;4950800;29;20396;-87
2023/03/15 07:06:57;;;;;;;10.52;5.65;;;5.70;99.90;;;;;;4952018;28;20035;-87
2023/03/15 07:09:23;;;;;;;12.60;5.97;;;5.60;99.90;;;;;;4952329;28;20023;-87
2023/03/15 07:11:48;;;;;;;9.07;5.60;;;5.80;99.90;;;;;;4951736;28;20470;-87
2023/03/15 07:14:14;;;;;;;10.65;5.60;;;5.80;1.00;;;;;;4951557;28;20027;-87
2023/03/15 07:16:39;;;;;;;9.20;5.63;;;5.80;99.90;;;;;;4951924;28;20085;-87
2023/03/15 07:19:05;;;;;;;12.30;5.18;;;5.70;99.90;;;;;;4952163;28;20096;-87
2023/03/15 07:21:31;;;;;;;7.80;5.00;;;5.60;99.90;;;;;;4951779;28;20397;-87
2023/03/15 07:23:56;;;;;;;9.45;5.32;;;5.80;99.90;;;;;;4951462;28;20035;-87
2023/03/15 07:26:22;;;;;;;12.88;5.10;;;5.90;99.90;;;;;;4966387;28;20077;-87
2023/03/15 07:28:49;;;;;;;9.45;5.07;;;6.50;99.90;;;;;;4932139;29;20126;-87
2023/03/15 07:31:15;;;;;;;10.38;5.70;;;6.30;99.90;;;;;;4932603;29;20490;-87
2023/03/15 07:33:40;;;;;;;10.88;5.15;;;6.40;99.90;;;;;;4931240;29;20051;-87
2023/03/15 07:36:07;;;;;;;11.27;5.13;;;6.50;99.90;;;;;;4942535;29;20408;-86
2023/03/15 07:38:34;;;;;;;11.82;5.53;;;6.80;99.90;;;;;;4950930;28;20034;-87
2023/03/15 07:41:05;;;;;;;8.15;4.90;;;6.90;99.90;;;;;;4951463;28;20027;-88
2023/03/15 07:43:30;;;;;;;10.20;4.65;;;6.90;99.90;;;;;;4951226;28;20055;-86
2023/03/15 07:45:56;;;;;;;10.30;4.70;;;7.00;99.90;;;;;;4950978;28;20027;-86
2023/03/15 07:48:22;;;;;;;13.65;5.00;;;7.20;99.90;;;;;;4951152;28;20493;-89
2023/03/15 07:50:48;;;;;;;12.38;4.82;;;7.20;99.90;;;;;;4951555;28;20035;-86
2023/03/15 07:53:13;;;;;;;9.80;4.70;;;7.20;99.90;;;;;;4951740;28;20038;-86
2023/03/15 07:55:39;;;;;;;9.32;4.60;;;7.20;99.90;;;;;;4950626;28;20061;-93
2023/03/15 07:58:05;;;;;;;8.68;5.47;;;7.40;99.90;;;;;;4951352;28;20088;-85
2023/03/15 08:00:31;;;;;;;12.13;4.78;;;7.40;99.90;;;;;;4949140;28;20534;-85
2023/03/15 08:02:57;;;;;;;10.75;4.40;;;7.30;99.90;;;;;;4951190;28;20040;-85
2023/03/15 08:05:23;;;;;;;13.93;5.38;;;7.30;99.90;;;;;;4950240;28;20046;-86
2023/03/15 08:07:49;;;;;;;12.13;5.00;;;7.50;99.90;;;;;;4949006;28;20119;-86
2023/03/15 08:10:16;;;;;;;10.32;4.93;;;7.50;99.90;;;;;;4951376;28;20038;-87
2023/03/15 08:12:42;;;;;;;11.23;4.60;;;7.50;99.90;;;;;;4950475;28;20073;-85
2023/03/15 08:15:10;;;;;;;10.13;4.63;;;7.50;99.90;;;;;;4951086;28;20027;-85
2023/03/15 08:17:37;;;;;;;6.82;3.35;;;7.70;99.90;;;;;;4965939;28;20031;-85
2023/03/15 08:20:04;;;;;;;8.18;3.42;;;7.60;99.90;;;;;;4950936;28;20027;-85
2023/03/15 08:22:29;;;;;;;5.80;3.47;;;7.80;99.90;;;;;;4951280;28;20043;-85
2023/03/15 08:24:56;;;;;;;7.82;4.13;;;7.70;99.90;;;;;;4950745;28;20499;-85
2023/03/15 08:27:22;;;;;;;5.22;3.67;;;7.80;99.90;;;;;;4950942;28;20058;-85
2023/03/15 08:29:48;;;;;;;8.23;3.70;;;7.80;99.90;;;;;;4932917;28;20035;-85
2023/03/15 08:32:16;;;;;;;8.18;3.70;;;7.90;99.90;;;;;;4931814;29;20044;-85
2023/03/15 08:34:42;;;;;;;9.38;4.00;;;8.00;99.90;;;;;;4932114;29;20436;-85
2023/03/15 08:37:09;;;;;;;8.68;3.22;;;8.00;99.90;;;;;;4931635;29;20040;-85
2023/03/15 08:39:35;;;;;;;6.93;3.10;;;8.20;99.90;;;;;;4932334;29;20028;-85
2023/03/15 08:42:01;;;;;;;7.70;3.72;;;8.10;99.90;;;;;;4935608;29;20126;-85
2023/03/15 08:44:26;;;;;;;4.70;3.03;;;8.20;99.90;;;;;;4938891;29;20047;-85
2023/03/15 08:46:52;;;;;;;7.72;3.33;;;8.20;99.90;;;;;;4953767;29;20031;-85
2023/03/15 08:49:17;;;;;;;7.55;3.08;;;8.40;99.90;;;;;;4938123;28;20478;-85
2023/03/15 08:51:43;;;;;;;7.05;3.55;;;8.50;99.90;;;;;;4949279;29;20062;-85
2023/03/15 08:54:09;;;;;;;8.25;3.08;;;8.60;99.90;;;;;;4952844;28;20038;-85
2023/03/15 08:56:34;;;;;;;6.13;2.90;;;8.90;99.90;;;;;;4954203;29;20500;-85
2023/03/15 08:59:00;;;;;;;4.90;2.30;;;9.20;99.90;;;;;;4951676;28;20031;-86
2023/03/15 09:01:26;;;;;;;7.63;2.70;;;9.10;99.90;;;;;;4950942;28;20078;-85
2023/03/15 09:03:51;;;;;;;5.80;2.58;;;9.40;99.90;;;;;;4953491;28;20400;-85
2023/03/15 09:06:17;;;;;;;8.60;2.80;;;10.50;99.90;;;;;;4953542;28;20045;-86
2023/03/15 09:08:42;;;;;;;6.50;2.35;;;13.00;99.90;;;;;;4952032;28;20571;-86
2023/03/15 09:11:09;;;;;;;4.13;2.00;;;14.50;99.90;;;;;;4952940;28;20443;-86
2023/03/15 09:13:35;;;;;;;7.57;2.00;;;15.80;99.90;;;;;;4953109;29;20063;-86
2023/03/15 09:16:02;;;;;;;4.50;1.92;;;15.90;99.90;;;;;;4954515;28;20057;-86
2023/03/15 09:18:27;;;;;;;5.28;1.80;;;17.00;99.90;;;;;;4953814;28;20451;-86
2023/03/15 09:20:53;;;;;;;4.63;2.35;;;17.00;99.90;;;;;;4940716;28;20032;-87
2023/03/15 09:23:19;;;;;;;5.35;2.17;;;17.70;99.90;;;;;;4934151;29;20032;-86
2023/03/15 09:25:45;;;;;;;4.05;1.77;;;18.30;99.90;;;;;;4934103;29;20553;-86
2023/03/15 09:28:11;;;;;;;3.97;1.90;;;17.10;99.90;;;;;;4934005;29;20115;-87
2023/03/15 09:30:38;;;;;;;3.03;1.40;;;18.10;99.90;;;;;;4934423;29;20027;-86
2023/03/15 09:33:04;;;;;;;2.50;1.45;;;18.40;99.90;;;;;;4934336;29;20090;-86
2023/03/15 09:35:30;;;;;;;3.35;1.55;;;19.00;99.90;;;;;;4934708;29;20110;-86
2023/03/15 09:37:55;;;;;;;4.80;1.88;;;19.50;99.90;;;;;;4933949;29;20051;-86
2023/03/15 09:40:21;;;;;;;3.55;2.20;;;20.30;99.90;;;;;;4934215;29;20046;-86
2023/03/15 09:43:05;;;;;;;3.88;1.98;;;19.90;99.90;;;;;;4933943;29;20039;-84
2023/03/15 09:45:36;;;;;;;3.78;1.90;;;19.80;99.90;;;;;;4934427;29;20107;-84
2023/03/15 09:48:15;;;;;;;3.72;1.90;;;19.50;99.90;;;;;;4934205;29;20035;-84
2023/03/15 09:50:48;;;;;;;4.30;2.25;;;18.70;99.90;;;;;;4933545;29;20056;-84
2023/03/15 09:53:32;;;;;;;4.43;1.67;;;19.50;99.90;;;;;;4933739;29;20077;-85
2023/03/15 09:55:58;;;;;;;3.90;2.00;;;19.70;99.90;;;;;;4933987;29;20089;-85
2023/03/15 09:58:33;;;;;;;1.92;1.33;;;19.80;99.90;;;;;;4934394;29;20481;-85
2023/03/15 10:01:07;;;;;;;3.92;1.65;;;19.80;99.90;;;;;;4942340;29;20127;-84
2023/03/15 10:03:52;;;;;;;4.10;1.75;;;20.40;99.90;;;;;;4951739;29;20035;-85
2023/03/15 10:06:25;;;;;;;3.00;1.70;;;20.10;99.90;;;;;;4953005;28;20027;-85
2023/03/15 10:08:54;;;;;;;4.47;2.55;;;20.00;99.90;;;;;;4952560;28;20039;-85
2023/03/15 10:11:48;;;;;;;2.40;1.17;;;19.00;99.90;;;;;;4953062;28;20102;-85
2023/03/15 10:14:34;;;;;;;3.22;1.40;;;19.20;99.90;;;;;;4953139;28;20078;-84
2023/03/15 10:17:10;;;;;;;3.28;1.35;;;20.70;99.90;;;;;;4952833;28;20089;-84
2023/03/15 10:19:35;;;;;;;4.22;2.38;;;19.80;99.90;;;;;;4952971;28;20436;-85
2023/03/15 10:22:03;;;;;;;2.95;1.30;;;19.60;99.90;;;;;;4952408;28;20082;-84
2023/03/15 10:24:33;;;;;;;2.67;1.38;;;19.80;99.90;;;;;;4952645;28;20028;-85
2023/03/15 10:27:28;;;;;;;2.58;1.10;;;20.90;99.90;;;;;;4952857;28;20042;-85
2023/03/15 10:29:57;;;;;;;3.35;1.90;;;21.10;99.90;;;;;;4950646;29;20053;-85
2023/03/15 10:32:29;;;;;;;1.20;0.80;;;20.80;99.90;;;;;;4950381;29;20214;-85
2023/03/15 10:34:57;;;;;;;2.92;1.73;;;22.10;99.90;;;;;;4950283;29;20556;-85
2023/03/15 10:37:24;;;;;;;3.85;2.15;;;23.10;99.90;;;;;;4949966;29;20443;-86
2023/03/15 10:39:54;;;;;;;1.40;0.82;;;23.70;99.90;;;;;;4950255;29;20027;-85
2023/03/15 10:42:31;;;;;;;1.15;0.90;;;22.90;99.90;;;;;;4934322;29;20063;-85
2023/03/15 10:44:59;;;;;;;2.58;1.40;;;23.20;99.90;;;;;;4950084;28;20101;-86
2023/03/15 10:47:26;;;;;;;3.90;2.58;;;24.40;99.90;;;;;;4950162;29;20066;-85
2023/03/15 10:49:58;;;;;;;1.92;0.88;;;22.90;99.90;;;;;;4950017;29;20032;-85
2023/03/15 10:52:34;;;;;;;2.22;1.00;;;23.10;99.90;;;;;;4950314;29;20482;-86
2023/03/15 10:55:26;;;;;;;2.20;1.05;;;23.70;99.90;;;;;;4949898;29;20031;-86
2023/03/15 10:57:56;;;;;;;2.55;0.95;;;23.20;99.90;;;;;;4950007;29;20515;-85
2023/03/15 11:00:35;;;;;;;2.08;1.23;;;24.40;99.90;;;;;;4949942;29;20043;-86
2023/03/15 11:03:01;;;;;;;1.80;0.88;;;25.30;99.90;;;;;;4930363;29;20040;-85
2023/03/15 11:05:30;;;;;;;2.45;1.23;;;25.50;99.90;;;;;;4930515;29;20397;-86
2023/03/15 11:07:58;;;;;;;1.58;1.00;;;25.70;99.90;;;;;;4932902;29;20039;-86
2023/03/15 11:10:27;;;;;;;2.30;1.00;;;25.40;99.90;;;;;;4933025;29;20057;-86
2023/03/15 11:13:19;;;;;;;1.33;1.02;;;25.60;99.90;;;;;;4946171;29;20023;-86
2023/03/15 11:16:02;;;;;;;3.22;1.60;;;27.30;99.90;;;;;;4952185;28;20027;-86
2023/03/15 11:18:54;;;;;;;2.78;1.88;;;27.70;99.90;;;;;;4952501;28;20050;-86
2023/03/15 11:21:24;;;;;;;2.83;1.58;;;27.20;99.90;;;;;;4950289;29;20031;-86
2023/03/15 11:23:50;;;;;;;2.83;1.98;;;25.60;99.90;;;;;;4951887;28;20080;-86
2023/03/15 11:26:25;;;;;;;3.30;1.38;;;25.60;99.90;;;;;;4951772;28;20023;-86
2023/03/15 11:29:03;;;;;;;1.60;1.00;;;25.60;99.90;;;;;;4952177;28;20031;-86
2023/03/15 11:31:30;;;;;;;2.05;1.08;;;26.60;99.90;;;;;;4936124;28;20023;-86
2023/03/15 11:33:59;;;;;;;1.92;1.00;;;26.40;99.90;;;;;;4932643;29;20513;-86
2023/03/15 11:36:30;;;;;;;1.50;0.80;;;27.00;99.90;;;;;;4932655;29;20432;-86
2023/03/15 11:38:59;;;;;;;1.73;0.80;;;27.50;99.90;;;;;;4932367;29;20089;-86
2023/03/15 11:41:50;;;;;;;3.88;1.00;;;26.90;99.90;;;;;;4932816;29;20078;-86
2023/03/15 11:44:36;;;;;;;1.48;0.90;;;26.00;99.90;;;;;;4932461;29;20085;-86
2023/03/15 11:47:37;;;;;;;3.33;1.00;;;25.70;99.90;;;;;;4932615;29;20502;-86
2023/03/15 11:50:03;;;;;;;1.88;1.00;;;25.60;99.90;;;;;;4931895;29;20032;-86
2023/03/15 11:52:29;;;;;;;2.10;0.80;;;26.30;99.90;;;;;;4932292;29;20035;-86
2023/03/15 11:54:59;;;;;;;1.95;0.80;;;26.40;99.90;;;;;;4932454;29;20417;-87
2023/03/15 11:57:28;;;;;;;2.33;1.00;;;26.80;99.90;;;;;;4931490;29;20397;-86
2023/03/15 11:59:54;;;;;;;2.88;1.02;;;26.00;99.90;;;;;;4932336;29;20043;-86
2023/03/15 12:02:23;;;;;;;1.30;0.77;;;26.00;99.90;;;;;;4940758;29;20027;-86
2023/03/15 12:04:55;;;;;;;1.55;0.90;;;27.10;99.90;;;;;;4951055;28;20494;-86
2023/03/15 12:07:24;;;;;;;1.48;0.77;;;28.50;99.90;;;;;;4951607;28;20570;-86
2023/03/15 12:10:03;;;;;;;1.65;0.82;;;27.40;99.90;;;;;;4951391;28;20028;-87
2023/03/15 12:12:29;;;;;;;1.05;0.68;;;28.00;99.90;;;;;;4949795;28;20073;-87
2023/03/15 12:15:13;;;;;;;1.33;0.70;;;28.50;99.90;;;;;;4956513;28;20035;-86
2023/03/15 12:17:48;;;;;;;1.30;0.90;;;27.30;99.90;;;;;;4957696;28;20034;-86
2023/03/15 12:20:25;;;;;;;1.90;1.00;;;26.80;99.90;;;;;;4956305;28;20031;-87
2023/03/15 12:22:52;;;;;;;4.32;0.80;;;26.30;99.90;;;;;;4956180;29;20043;-86
2023/03/15 12:25:56;;;;;;;0.77;0.60;;;25.70;99.90;;;;;;4957767;28;20385;-87
2023/03/15 12:28:25;;;;;;;1.42;0.88;;;27.00;99.90;;;;;;4957611;29;20114;-86
2023/03/15 12:30:58;;;;;;;2.22;1.00;;;26.60;99.90;;;;;;4949954;28;20032;-86
2023/03/15 12:33:26;;;;;;;1.50;0.80;;;27.10;99.90;;;;;;4938213;29;20161;-86
2023/03/15 12:36:02;;;;;;;2.03;0.80;;;26.20;99.90;;;;;;4938117;29;20058;-86
2023/03/15 12:38:35;;;;;;;2.38;0.90;;;26.40;99.90;;;;;;4938243;29;20027;-87
2023/03/15 12:41:06;;;;;;;1.58;0.95;;;27.10;99.90;;;;;;4938226;29;20050;-87
2023/03/15 12:43:41;;;;;;;1.38;0.70;;;25.40;99.90;;;;;;4937932;29;20059;-86
2023/03/15 12:46:40;;;;;;;1.40;0.80;;;25.50;99.90;;;;;;4937681;29;20497;-86
2023/03/15 12:49:05;;;;;;;2.30;1.10;;;24.90;99.90;;;;;;4937934;29;20493;-86
2023/03/15 12:51:54;;;;;;;1.27;0.82;;;25.10;99.90;;;;;;4937971;29;20067;-86
2023/03/15 12:54:22;;;;;;;1.45;0.80;;;25.60;99.90;;;;;;4937879;29;20448;-86
2023/03/15 12:56:53;;;;;;;0.98;0.68;;;25.10;99.90;;;;;;4937967;29;20036;-86
2023/03/15 12:59:30;;;;;;;1.33;0.90;;;25.30;99.90;;;;;;4938198;29;20042;-86